createdAt,value
2022-07-28T00:04:49.311Z,96789.41
2022-07-28T00:09:42.755Z,96783.25
2022-07-28T00:14:36.331Z,96775.53
2022-07-28T00:19:31.388Z,96765.91
2022-07-28T00:24:24.852Z,96759.00
2022-07-28T00:29:18.251Z,96753.75
2022-07-28T00:34:12.151Z,96754.97
2022-07-28T00:39:07.326Z,96753.59
2022-07-28T00:44:00.641Z,96747.88
2022-07-28T00:48:56.406Z,96748.72
2022-07-28T00:53:50.316Z,96739.72
2022-07-28T00:58:45.054Z,96749.16
2022-07-28T01:03:43.987Z,96738.97
2022-07-28T01:08:54.524Z,96747.41
2022-07-28T01:14:03.921Z,96740.69
2022-07-28T01:19:09.630Z,96740.16
2022-07-28T01:24:24.090Z,96754.97
2022-07-28T01:30:00.543Z,96728.78
2022-07-28T01:35:01.880Z,96727.31
2022-07-28T01:40:04.494Z,96726.31
2022-07-28T01:45:05.250Z,96725.16
2022-07-28T01:50:06.335Z,96725.94
2022-07-28T01:55:02.950Z,96724.41
2022-07-28T01:59:58.811Z,96725.09
2022-07-28T02:04:57.008Z,96728.97
2022-07-28T02:09:52.732Z,96722.31
2022-07-28T02:14:51.420Z,96721.88
2022-07-28T02:19:48.756Z,96725.63
2022-07-28T02:24:46.204Z,96724.97
2022-07-28T02:30:02.668Z,96721.25
2022-07-28T02:35:05.436Z,96724.56
2022-07-28T02:40:01.508Z,96721.41
2022-07-28T02:45:01.728Z,96723.84
2022-07-28T02:49:57.440Z,96725.53
2022-07-28T02:54:53.084Z,96714.94
2022-07-28T02:59:48.469Z,96713.88
2022-07-28T03:05:01.705Z,96717.69
2022-07-28T03:09:55.567Z,96719.66
2022-07-28T03:14:49.153Z,96723.72
2022-07-28T03:19:44.058Z,96727.41
2022-07-28T03:24:39.898Z,96732.13
2022-07-28T03:29:37.417Z,96742.13
2022-07-28T03:34:31.091Z,96739.25
2022-07-28T03:39:32.576Z,96738.88
2022-07-28T03:44:28.971Z,96743.06
2022-07-28T03:49:23.247Z,96753.81
2022-07-28T03:54:17.033Z,96754.53
2022-07-28T03:59:12.425Z,96749.19
2022-07-28T04:04:06.539Z,96754.19
2022-07-28T04:08:59.887Z,96747.28
2022-07-28T04:13:53.556Z,96766.88
2022-07-28T04:18:48.576Z,96764.38
2022-07-28T04:23:42.090Z,96771.59
2022-07-28T04:28:36.093Z,96774.94
2022-07-28T04:33:29.460Z,96771.28
2022-07-28T04:38:24.228Z,96770.25
2022-07-28T04:43:17.968Z,96768.88
2022-07-28T04:48:12.418Z,96772.81
2022-07-28T04:53:05.800Z,96772.38
2022-07-28T04:58:00.461Z,96773.22
2022-07-28T05:02:53.838Z,96774.38
2022-07-28T05:07:47.310Z,96775.34
2022-07-28T05:12:41.147Z,96769.72
2022-07-28T05:17:36.951Z,96782.88
2022-07-28T05:22:30.796Z,96778.00
2022-07-28T05:27:24.486Z,96783.00
2022-07-28T05:32:18.237Z,96782.00
2022-07-28T05:37:13.160Z,96769.03
2022-07-28T05:42:07.186Z,96782.25
2022-07-28T05:47:00.513Z,96782.72
2022-07-28T05:51:53.831Z,96775.28
2022-07-28T05:56:50.442Z,96775.75
2022-07-28T06:01:43.936Z,96773.81
2022-07-28T06:06:37.735Z,96780.31
2022-07-28T06:11:31.105Z,96779.34
2022-07-28T06:16:26.100Z,96775.94
2022-07-28T06:21:19.740Z,96773.34
2022-07-28T06:26:13.113Z,96768.38
2022-07-28T06:31:06.664Z,96775.47
2022-07-28T06:36:01.456Z,96781.16
2022-07-28T06:40:54.812Z,96780.63
2022-07-28T06:45:48.295Z,96778.88
2022-07-28T06:50:45.989Z,96777.13
2022-07-28T06:55:41.372Z,96768.38
2022-07-28T07:00:34.895Z,96773.63
2022-07-28T07:05:30.026Z,96776.19
2022-07-28T07:10:23.551Z,96778.56
2022-07-28T07:15:18.320Z,96774.72
2022-07-28T07:20:14.325Z,96778.03
2022-07-28T07:25:11.369Z,96775.53
2022-07-28T07:30:06.177Z,96769.00
2022-07-28T07:35:00.963Z,96769.59
2022-07-28T07:39:54.310Z,96767.75
2022-07-28T07:44:50.307Z,96764.78
2022-07-28T07:49:46.100Z,96771.06
2022-07-28T07:54:41.335Z,96761.00
2022-07-28T07:59:34.698Z,96766.41
2022-07-28T08:04:28.798Z,96760.75
2022-07-28T08:09:22.462Z,96761.25
2022-07-28T08:14:17.999Z,96752.84
2022-07-28T08:19:11.826Z,96746.88
2022-07-28T08:24:05.965Z,96750.81
2022-07-28T08:28:59.348Z,96744.19
2022-07-28T08:33:54.909Z,96750.41
2022-07-28T08:38:48.473Z,96741.13
2022-07-28T08:43:43.714Z,96736.34
2022-07-28T08:48:39.227Z,96738.44
2022-07-28T08:53:36.763Z,96745.84
2022-07-28T08:58:33.412Z,96728.31
2022-07-28T09:03:29.170Z,96739.41
2022-07-28T09:08:23.154Z,96727.97
2022-07-28T09:13:19.219Z,96730.38
2022-07-28T09:18:12.650Z,96733.38
2022-07-28T09:23:33.495Z,96728.72
2022-07-28T09:28:23.939Z,96722.56
2022-07-28T09:33:42.929Z,96717.97
2022-07-28T09:38:42.937Z,96718.31
2022-07-28T09:43:40.747Z,96699.69
2022-07-28T09:48:34.324Z,96700.53
2022-07-28T09:53:28.876Z,96695.50
2022-07-28T09:58:22.423Z,96696.00
2022-07-28T10:03:29.339Z,96691.78
2022-07-28T10:08:42.241Z,96690.53
2022-07-28T10:13:37.130Z,96688.31
2022-07-28T10:18:31.912Z,96682.34
2022-07-28T10:23:25.441Z,96675.28
2022-07-28T10:28:23.242Z,96677.22
2022-07-28T10:33:18.105Z,96664.91
2022-07-28T10:38:16.260Z,96666.53
2022-07-28T10:43:10.263Z,96667.59
2022-07-28T10:48:06.163Z,96658.19
2022-07-28T10:53:02.903Z,96671.78
2022-07-28T10:58:12.384Z,96655.47
2022-07-28T11:03:14.059Z,96655.25
2022-07-28T11:08:10.796Z,96653.63
2022-07-28T11:13:06.137Z,96651.06
2022-07-28T11:18:09.835Z,96645.41
2022-07-28T11:23:55.961Z,96642.06
2022-07-28T11:29:20.537Z,96637.47
2022-07-28T11:34:15.451Z,96635.66
2022-07-28T11:39:25.354Z,96637.59
2022-07-28T11:44:28.356Z,96647.59
2022-07-28T11:49:28.065Z,96636.53
2022-07-28T11:54:21.700Z,96633.25
2022-07-28T11:59:16.576Z,96636.09
2022-07-28T12:04:14.866Z,96634.44
2022-07-28T12:09:10.757Z,96628.94
2022-07-28T12:14:06.214Z,96627.84
2022-07-28T12:19:01.692Z,96628.44
2022-07-28T12:23:56.751Z,96628.16
2022-07-28T12:28:52.273Z,96615.97
2022-07-28T12:33:45.723Z,96616.34
2022-07-28T12:38:39.347Z,96614.94
2022-07-28T12:43:34.385Z,96616.47
2022-07-28T12:48:27.936Z,96610.38
2022-07-28T12:53:22.896Z,96604.41
2022-07-28T12:58:36.179Z,96591.97
2022-07-28T13:03:31.034Z,96584.72
2022-07-28T13:08:27.653Z,96576.72
2022-07-28T13:13:22.985Z,96582.84
2022-07-28T13:18:17.746Z,96578.50
2022-07-28T13:23:11.111Z,96580.16
2022-07-28T13:28:04.575Z,96558.56
2022-07-28T13:32:58.638Z,96556.13
2022-07-28T13:37:53.449Z,96558.22
2022-07-28T13:42:52.746Z,96544.59
2022-07-28T13:47:52.178Z,96543.09
2022-07-28T13:52:45.928Z,96526.78
2022-07-28T14:23:34.095Z,96497.88
2022-07-28T14:28:27.460Z,96506.31
2022-07-28T14:33:20.983Z,96504.16
2022-07-28T14:38:52.458Z,96496.91
2022-07-28T14:43:29.322Z,96493.16
2022-07-28T14:48:22.783Z,96494.09
2022-07-28T14:53:17.283Z,96490.94
2022-07-28T14:58:10.696Z,96491.53
2022-07-28T15:03:05.725Z,96477.66
2022-07-28T15:07:59.180Z,96482.94
2022-07-28T15:12:53.007Z,96478.88
2022-07-28T15:17:47.759Z,96472.97
2022-07-28T15:27:53.624Z,96477.56
2022-07-28T15:32:55.981Z,96481.16
2022-07-28T15:37:50.460Z,96475.78
2022-07-28T15:42:43.800Z,96487.38
2022-07-28T15:47:38.767Z,96473.47
2022-07-28T15:52:32.070Z,96468.38
2022-07-28T15:57:25.432Z,96475.09
2022-07-28T16:02:31.033Z,96464.56
2022-07-28T16:07:28.303Z,96471.59
2022-07-28T16:12:22.866Z,96452.00
2022-07-28T16:17:16.649Z,96446.06
2022-07-28T16:22:10.101Z,96445.63
2022-07-28T16:27:04.936Z,96446.50
2022-07-28T16:31:58.343Z,96435.47
2022-07-28T16:36:51.782Z,96440.09
2022-07-28T16:41:46.767Z,96457.78
2022-07-28T16:46:42.347Z,96460.03
2022-07-28T16:51:35.786Z,96478.91
2022-07-28T16:56:29.423Z,96466.59
2022-07-28T17:01:22.809Z,96492.97
2022-07-28T17:06:17.685Z,96483.34
2022-07-28T17:21:35.325Z,96484.03
2022-07-28T17:27:32.574Z,96485.78
2022-07-28T17:59:51.013Z,96566.09
2022-07-28T18:04:47.481Z,96589.19
2022-07-28T18:09:41.952Z,96627.34
2022-07-28T18:21:27.085Z,96620.28
2022-07-28T18:26:24.599Z,96616.25
2022-07-28T18:36:30.079Z,96608.03
2022-07-28T18:41:26.664Z,96623.03
2022-07-28T18:56:41.093Z,96644.59
2022-07-28T19:01:34.952Z,96654.94
2022-07-28T19:06:29.335Z,96644.88
2022-07-28T19:11:22.872Z,96651.59
2022-07-28T19:16:20.167Z,96661.16
2022-07-28T19:42:10.659Z,96704.38
2022-07-28T19:47:04.263Z,96725.84
2022-07-28T19:51:58.012Z,96746.06
2022-07-28T20:44:29.944Z,96881.28
